createdAt,value
2018-09-28T00:00:52.695Z,6.38
2018-09-28T00:03:21.536Z,6.36
2018-09-28T00:05:50.332Z,6.30
2018-09-28T00:08:19.148Z,6.30
2018-09-28T00:10:48.187Z,6.30
2018-09-28T00:13:17.146Z,6.21
2018-09-28T00:15:45.974Z,6.31
2018-09-28T00:18:14.989Z,6.21
2018-09-28T00:20:43.924Z,6.15
2018-09-28T00:23:12.916Z,6.11
2018-09-28T00:25:42.039Z,6.18
2018-09-28T00:28:11.140Z,6.15
2018-09-28T00:30:40.178Z,6.15
2018-09-28T00:33:09.093Z,6.09
2018-09-28T00:35:38.061Z,6.08
2018-09-28T00:38:07.301Z,6.09
2018-09-28T00:40:36.214Z,6.13
2018-09-28T00:43:05.032Z,6.18
2018-09-28T00:45:33.854Z,6.20
2018-09-28T00:48:02.860Z,6.19
2018-09-28T00:50:31.718Z,6.17
2018-09-28T00:53:00.614Z,6.08
2018-09-28T00:55:29.458Z,6.00
2018-09-28T00:57:58.454Z,5.98
2018-09-28T01:00:27.506Z,5.91
2018-09-28T01:02:56.341Z,5.94
2018-09-28T01:05:25.436Z,5.89
2018-09-28T01:07:54.823Z,5.83
2018-09-28T01:10:23.972Z,5.85
2018-09-28T01:12:52.947Z,5.83
2018-09-28T01:15:22.236Z,5.82
2018-09-28T01:17:51.240Z,5.82
2018-09-28T01:20:20.216Z,5.76
2018-09-28T01:22:49.056Z,5.77
2018-09-28T01:25:17.939Z,5.73
2018-09-28T01:27:47.031Z,5.66
2018-09-28T01:30:15.781Z,5.73
2018-09-28T01:32:44.547Z,5.73
2018-09-28T01:35:13.302Z,5.67
2018-09-28T01:37:42.046Z,5.63
2018-09-28T01:40:10.936Z,5.64
2018-09-28T01:42:39.620Z,5.60
2018-09-28T01:45:08.389Z,5.56
2018-09-28T01:47:37.116Z,5.54
2018-09-28T01:50:05.862Z,5.58
2018-09-28T01:52:34.567Z,5.53
2018-09-28T01:55:03.296Z,5.45
2018-09-28T01:57:32.036Z,5.45
2018-09-28T02:00:00.802Z,5.41
2018-09-28T02:02:29.548Z,5.38
2018-09-28T02:04:58.192Z,5.34
2018-09-28T02:07:26.811Z,5.31
2018-09-28T02:09:55.507Z,5.26
2018-09-28T02:12:24.266Z,5.23
2018-09-28T02:14:53.127Z,5.20
2018-09-28T02:17:21.839Z,5.19
2018-09-28T02:19:50.628Z,5.13
2018-09-28T02:22:19.386Z,5.15
2018-09-28T02:24:48.127Z,5.14
2018-09-28T02:27:16.885Z,5.11
2018-09-28T02:29:45.531Z,5.06
2018-09-28T02:32:14.217Z,5.14
2018-09-28T02:34:42.967Z,5.08
2018-09-28T02:37:11.643Z,5.11
2018-09-28T02:39:40.405Z,5.07
2018-09-28T02:42:09.067Z,5.07
2018-09-28T02:44:37.736Z,5.07
2018-09-28T02:47:06.396Z,5.12
2018-09-28T02:49:35.121Z,5.11
2018-09-28T02:52:03.755Z,5.02
2018-09-28T02:54:32.573Z,5.00
2018-09-28T02:57:01.285Z,5.06
2018-09-28T02:59:29.896Z,5.08
2018-09-28T03:01:58.644Z,4.93
2018-09-28T03:04:27.335Z,5.01
2018-09-28T03:06:56.053Z,4.92
2018-09-28T03:09:24.786Z,4.88
2018-09-28T03:11:53.488Z,4.84
2018-09-28T03:14:22.183Z,4.70
2018-09-28T03:16:50.946Z,4.71
2018-09-28T03:19:19.651Z,4.65
2018-09-28T03:21:48.332Z,4.60
2018-09-28T03:24:17.015Z,4.60
2018-09-28T03:26:45.823Z,4.53
2018-09-28T03:29:14.497Z,4.54
2018-09-28T03:31:43.721Z,4.57
2018-09-28T03:34:12.412Z,4.49
2018-09-28T03:36:41.090Z,4.59
2018-09-28T03:39:09.825Z,4.58
2018-09-28T03:41:38.479Z,4.55
2018-09-28T03:44:07.416Z,4.54
2018-09-28T03:46:36.463Z,4.51
2018-09-28T03:49:05.262Z,4.46
2018-09-28T03:51:34.020Z,4.33
2018-09-28T03:54:03.652Z,4.32
2018-09-28T03:56:32.499Z,4.28
2018-09-28T03:59:01.215Z,4.27
2018-09-28T04:01:29.993Z,4.24
2018-09-28T04:03:58.739Z,4.28
2018-09-28T04:06:27.519Z,4.33
2018-09-28T04:08:56.277Z,4.31
2018-09-28T04:11:25.170Z,4.40
2018-09-28T04:13:53.864Z,4.39
2018-09-28T04:16:22.635Z,4.42
2018-09-28T04:18:51.378Z,4.46
2018-09-28T04:21:20.053Z,4.49
2018-09-28T04:23:48.756Z,4.47
2018-09-28T04:26:17.416Z,4.52
2018-09-28T04:28:46.267Z,4.54
2018-09-28T04:31:14.911Z,4.58
2018-09-28T04:33:43.576Z,4.55
2018-09-28T04:36:12.337Z,4.60
2018-09-28T04:38:41.064Z,4.65
2018-09-28T04:41:09.727Z,4.69
2018-09-28T04:43:38.414Z,4.68
2018-09-28T04:46:07.233Z,4.68
2018-09-28T04:48:35.923Z,4.62
2018-09-28T04:51:04.672Z,4.60
2018-09-28T04:53:33.416Z,4.61
2018-09-28T04:56:02.221Z,4.64
2018-09-28T04:58:31.225Z,4.60
2018-09-28T05:00:59.918Z,4.64
2018-09-28T05:03:28.615Z,4.69
2018-09-28T05:05:57.323Z,4.75
2018-09-28T05:08:26.036Z,4.76
2018-09-28T05:10:54.826Z,4.82
2018-09-28T05:13:23.488Z,4.87
2018-09-28T05:15:52.187Z,4.90
2018-09-28T05:18:20.859Z,4.99
2018-09-28T05:20:49.534Z,5.02
2018-09-28T05:23:18.260Z,5.04
2018-09-28T05:25:47.065Z,5.04
2018-09-28T05:28:15.743Z,5.08
2018-09-28T05:30:44.971Z,5.17
2018-09-28T05:33:13.424Z,5.26
2018-09-28T05:35:42.396Z,5.29
2018-09-28T05:38:11.284Z,5.38
2018-09-28T05:40:40.460Z,5.42
2018-09-28T05:43:09.436Z,5.51
2018-09-28T05:45:38.163Z,5.64
2018-09-28T05:48:06.998Z,5.76
2018-09-28T05:50:35.683Z,5.78
2018-09-28T05:53:04.376Z,5.82
2018-09-28T05:55:33.113Z,5.86
2018-09-28T05:58:06.949Z,6.00
2018-09-28T06:00:40.950Z,6.00
2018-09-28T06:03:13.099Z,6.10
2018-09-28T06:05:48.811Z,6.12
2018-09-28T06:08:17.541Z,6.22
2018-09-28T06:10:46.192Z,6.27
2018-09-28T06:13:14.890Z,6.35
2018-09-28T06:15:44.648Z,6.49
2018-09-28T06:18:13.451Z,6.58
2018-09-28T06:20:42.248Z,6.63
2018-09-28T06:23:11.381Z,6.63
2018-09-28T06:25:40.035Z,6.68
2018-09-28T06:28:10.971Z,6.72
2018-09-28T06:30:39.669Z,6.87
2018-09-28T06:33:09.016Z,7.01
2018-09-28T06:35:37.720Z,7.14
2018-09-28T06:38:06.488Z,7.30
2018-09-28T06:40:35.159Z,7.36
2018-09-28T06:43:03.982Z,7.41
2018-09-28T06:45:32.716Z,7.53
2018-09-28T06:48:01.491Z,7.57
2018-09-28T06:50:30.158Z,7.58
2018-09-28T06:52:58.799Z,7.62
2018-09-28T06:55:27.471Z,7.69
2018-09-28T06:57:56.295Z,7.76
2018-09-28T07:00:25.207Z,7.85
2018-09-28T07:02:53.893Z,7.98
2018-09-28T07:05:22.663Z,8.08
2018-09-28T07:07:51.299Z,8.21
2018-09-28T07:10:19.964Z,8.31
2018-09-28T07:12:48.679Z,8.45
2018-09-28T07:15:17.529Z,8.54
2018-09-28T07:17:46.525Z,8.66
2018-09-28T07:20:15.232Z,8.81
2018-09-28T07:22:44.000Z,8.98
2018-09-28T07:25:12.797Z,9.12
2018-09-28T07:27:41.630Z,9.26
2018-09-28T07:30:10.429Z,9.52
2018-09-28T07:32:39.556Z,9.64
2018-09-28T07:35:08.289Z,9.76
2018-09-28T07:37:36.975Z,9.98
2018-09-28T07:40:05.884Z,10.22
2018-09-28T07:42:34.739Z,10.41
2018-09-28T07:45:03.400Z,10.57
2018-09-28T07:47:32.120Z,10.75
2018-09-28T07:50:00.764Z,10.87
2018-09-28T07:52:29.535Z,11.05
2018-09-28T07:54:58.252Z,11.22
2018-09-28T07:57:26.967Z,11.32
2018-09-28T07:59:55.642Z,11.48
2018-09-28T08:02:24.404Z,11.64
2018-09-28T08:04:53.092Z,11.72
2018-09-28T08:07:21.817Z,11.91
2018-09-28T08:09:50.482Z,12.00
2018-09-28T08:12:19.168Z,12.19
2018-09-28T08:14:47.849Z,12.37
2018-09-28T08:17:16.616Z,12.63
2018-09-28T08:19:45.368Z,12.83
2018-09-28T08:22:14.160Z,13.04
2018-09-28T08:24:42.880Z,13.16
2018-09-28T08:27:11.736Z,13.24
2018-09-28T08:29:40.504Z,13.42
2018-09-28T08:32:09.228Z,13.58
2018-09-28T08:34:37.953Z,13.70
2018-09-28T08:37:06.668Z,13.93
2018-09-28T08:39:35.613Z,14.09
2018-09-28T08:42:04.384Z,14.09
2018-09-28T08:44:33.269Z,14.32
2018-09-28T08:47:02.072Z,14.39
2018-09-28T08:49:30.832Z,14.58
2018-09-28T08:51:59.750Z,14.66
2018-09-28T08:54:28.411Z,14.80
2018-09-28T08:56:57.354Z,14.91
2018-09-28T08:59:26.067Z,15.08
2018-09-28T09:01:54.774Z,15.20
2018-09-28T09:04:23.579Z,15.30
2018-09-28T09:06:52.312Z,15.47
2018-09-28T09:09:21.014Z,15.49
2018-09-28T09:11:49.752Z,15.61
2018-09-28T09:14:18.481Z,15.67
2018-09-28T09:16:47.188Z,15.81
2018-09-28T09:19:15.931Z,15.71
2018-09-28T09:21:44.630Z,15.79
2018-09-28T09:24:13.399Z,15.87
2018-09-28T09:26:42.122Z,15.88
2018-09-28T09:29:10.815Z,15.94
2018-09-28T09:31:39.454Z,15.98
2018-09-28T09:34:08.198Z,16.01
2018-09-28T09:36:36.887Z,16.20
2018-09-28T09:39:08.270Z,16.23
2018-09-28T09:41:37.068Z,16.54
2018-09-28T09:44:05.737Z,16.63
2018-09-28T09:46:34.535Z,16.75
2018-09-28T09:49:03.264Z,17.06
2018-09-28T09:51:32.043Z,17.37
2018-09-28T09:54:00.880Z,17.85
2018-09-28T09:56:29.931Z,18.50
2018-09-28T09:58:58.740Z,18.87
2018-09-28T10:01:32.724Z,19.23
2018-09-28T10:04:06.493Z,19.70
2018-09-28T10:06:35.227Z,19.88
2018-09-28T10:09:04.413Z,20.15
2018-09-28T10:11:33.252Z,20.65
2018-09-28T10:14:01.963Z,21.00
2018-09-28T10:16:31.179Z,20.98
2018-09-28T10:18:59.898Z,20.88
2018-09-28T10:21:28.581Z,21.13
2018-09-28T10:23:57.299Z,21.35
2018-09-28T10:26:26.049Z,21.52
2018-09-28T10:28:54.793Z,21.36
2018-09-28T10:31:23.536Z,21.72
2018-09-28T10:33:52.316Z,21.34
2018-09-28T10:36:21.108Z,21.55
2018-09-28T10:38:49.790Z,21.60
2018-09-28T10:41:18.524Z,22.09
2018-09-28T10:43:47.121Z,22.27
2018-09-28T10:46:15.803Z,22.42
2018-09-28T10:48:44.461Z,22.74
2018-09-28T10:51:13.104Z,22.81
2018-09-28T10:53:41.833Z,22.95
2018-09-28T10:56:10.501Z,23.06
2018-09-28T10:58:39.165Z,23.14
2018-09-28T11:01:08.037Z,23.44
2018-09-28T11:03:36.987Z,23.41
2018-09-28T11:06:05.765Z,23.74
2018-09-28T11:08:34.528Z,23.81
2018-09-28T11:11:03.293Z,24.04
2018-09-28T11:13:32.074Z,23.97
2018-09-28T11:16:01.341Z,24.05
2018-09-28T11:18:30.027Z,24.03
2018-09-28T11:20:58.728Z,24.12
2018-09-28T11:23:27.512Z,24.41
2018-09-28T11:25:56.218Z,24.23
2018-09-28T11:28:25.041Z,24.71
2018-09-28T11:30:53.807Z,25.03
2018-09-28T11:33:22.685Z,25.04
2018-09-28T11:35:51.398Z,25.08
2018-09-28T11:38:20.396Z,25.50
2018-09-28T11:40:49.147Z,25.84
2018-09-28T11:43:17.960Z,25.81
2018-09-28T11:45:46.658Z,26.02
2018-09-28T11:48:15.428Z,25.91
2018-09-28T11:50:44.260Z,26.24
2018-09-28T11:53:13.068Z,26.07
2018-09-28T11:55:42.275Z,26.29
2018-09-28T11:58:10.992Z,26.06
2018-09-28T12:00:39.755Z,26.03
2018-09-28T12:03:08.995Z,26.05
2018-09-28T12:05:38.137Z,26.75
2018-09-28T12:08:06.891Z,26.28
2018-09-28T12:10:35.626Z,26.25
2018-09-28T12:13:04.744Z,26.27
2018-09-28T12:15:33.434Z,25.95
2018-09-28T12:18:02.167Z,25.79
2018-09-28T12:20:31.044Z,26.21
2018-09-28T12:22:59.757Z,26.33
2018-09-28T12:25:28.537Z,26.22
2018-09-28T12:27:57.289Z,26.21
2018-09-28T12:30:26.144Z,26.16
2018-09-28T12:32:55.064Z,26.00
2018-09-28T12:35:24.388Z,26.09
2018-09-28T12:37:53.162Z,26.14
2018-09-28T12:40:21.890Z,26.05
2018-09-28T12:42:50.829Z,26.22
2018-09-28T12:45:19.524Z,25.92
2018-09-28T12:47:48.251Z,26.01
2018-09-28T12:50:17.144Z,26.02
2018-09-28T12:52:48.771Z,25.26
2018-09-28T12:55:17.426Z,25.60
2018-09-28T12:57:46.120Z,25.69
2018-09-28T13:00:17.602Z,25.81
2018-09-28T13:02:46.330Z,25.69
2018-09-28T13:05:14.620Z,25.98
2018-09-28T13:07:43.470Z,26.24
2018-09-28T13:10:12.238Z,26.25
2018-09-28T13:12:41.177Z,26.43
2018-09-28T13:15:10.094Z,26.18
2018-09-28T13:17:38.760Z,26.53
2018-09-28T13:20:07.501Z,26.36
2018-09-28T13:22:36.240Z,26.56
2018-09-28T13:25:05.101Z,26.84
2018-09-28T13:27:33.848Z,26.76
2018-09-28T13:30:02.509Z,26.45
2018-09-28T13:32:31.234Z,26.13
2018-09-28T13:35:00.082Z,26.24
2018-09-28T13:37:28.732Z,26.06
2018-09-28T13:39:57.396Z,26.07
2018-09-28T13:42:26.205Z,26.09
2018-09-28T13:44:54.917Z,26.19
2018-09-28T13:47:23.768Z,25.91
2018-09-28T13:49:52.635Z,26.19
2018-09-28T13:52:21.458Z,26.55
2018-09-28T13:54:50.269Z,26.56
2018-09-28T13:57:18.970Z,26.70
2018-09-28T13:59:47.608Z,26.93
2018-09-28T14:02:16.602Z,27.18
2018-09-28T14:04:45.755Z,27.31
2018-09-28T14:07:14.733Z,27.12
2018-09-28T14:09:43.340Z,27.14
2018-09-28T14:12:12.112Z,26.78
2018-09-28T14:14:40.880Z,27.16
2018-09-28T14:17:09.632Z,27.42
2018-09-28T14:19:38.325Z,27.25
2018-09-28T14:22:07.221Z,27.20
2018-09-28T14:24:35.974Z,27.00
2018-09-28T14:27:04.723Z,26.98
2018-09-28T14:29:33.396Z,26.20
2018-09-28T14:32:02.131Z,25.33
2018-09-28T14:34:30.937Z,25.70
2018-09-28T14:36:59.734Z,25.09
2018-09-28T14:39:28.496Z,25.60
2018-09-28T14:41:57.335Z,25.77
2018-09-28T14:44:26.035Z,26.21
2018-09-28T14:46:54.922Z,26.06
2018-09-28T14:49:23.698Z,25.45
2018-09-28T14:51:53.161Z,25.25
2018-09-28T14:54:21.945Z,24.36
2018-09-28T14:56:50.817Z,24.80
2018-09-28T14:59:19.572Z,24.53
2018-09-28T15:01:48.380Z,24.76
2018-09-28T15:04:17.234Z,24.59
2018-09-28T15:06:46.094Z,24.52
2018-09-28T15:09:14.721Z,24.62
2018-09-28T15:11:43.488Z,24.29
2018-09-28T15:14:12.233Z,23.73
2018-09-28T15:16:41.085Z,22.91
2018-09-28T15:19:09.865Z,22.95
2018-09-28T15:21:38.544Z,22.43
2018-09-28T15:24:07.597Z,22.32
2018-09-28T15:26:36.326Z,22.01
2018-09-28T15:29:05.124Z,21.79
2018-09-28T15:31:33.830Z,21.70
2018-09-28T15:34:02.543Z,21.71
2018-09-28T15:36:31.225Z,21.70
2018-09-28T15:39:00.287Z,21.78
2018-09-28T15:41:29.134Z,21.53
2018-09-28T15:43:57.853Z,21.12
2018-09-28T15:46:26.616Z,20.95
2018-09-28T15:48:55.336Z,20.59
2018-09-28T15:51:24.085Z,20.34
2018-09-28T15:53:52.814Z,20.08
2018-09-28T15:56:21.581Z,19.85
2018-09-28T15:58:50.390Z,19.57
2018-09-28T16:01:19.173Z,19.43
2018-09-28T16:03:47.860Z,19.03
2018-09-28T16:06:16.553Z,18.74
2018-09-28T16:08:45.290Z,18.56
2018-09-28T16:11:14.621Z,18.32
2018-09-28T16:13:43.378Z,18.08
2018-09-28T16:16:12.100Z,18.01
2018-09-28T16:18:42.076Z,17.86
2018-09-28T16:21:10.871Z,17.58
2018-09-28T16:23:39.753Z,17.44
2018-09-28T16:26:08.421Z,17.26
2018-09-28T16:28:37.175Z,17.18
2018-09-28T16:31:06.172Z,17.10
2018-09-28T16:33:35.159Z,16.92
2018-09-28T16:36:04.082Z,16.93
2018-09-28T16:38:32.859Z,16.81
2018-09-28T16:41:01.629Z,16.76
2018-09-28T16:43:30.431Z,16.72
2018-09-28T16:45:59.135Z,16.53
2018-09-28T16:48:27.814Z,16.45
2018-09-28T16:50:56.504Z,16.48
2018-09-28T16:53:25.172Z,16.41
2018-09-28T16:55:53.871Z,16.26
2018-09-28T16:58:22.564Z,16.14
2018-09-28T17:00:51.271Z,15.98
2018-09-28T17:03:20.113Z,15.93
2018-09-28T17:05:49.308Z,15.85
2018-09-28T17:08:18.058Z,15.79
2018-09-28T17:10:46.961Z,15.74
2018-09-28T17:13:15.648Z,15.73
2018-09-28T17:15:44.577Z,15.63
2018-09-28T17:18:13.336Z,15.58
2018-09-28T17:20:42.188Z,15.51
2018-09-28T17:23:10.926Z,15.51
2018-09-28T17:25:39.717Z,15.49
2018-09-28T17:28:08.437Z,15.49
2018-09-28T17:30:37.233Z,15.45
2018-09-28T17:33:06.235Z,15.43
2018-09-28T17:35:34.914Z,15.34
2018-09-28T17:38:03.881Z,15.29
2018-09-28T17:40:32.627Z,15.24
2018-09-28T17:43:02.194Z,15.10
2018-09-28T17:45:31.192Z,14.99
2018-09-28T17:47:59.917Z,14.97
2018-09-28T17:50:28.683Z,14.92
2018-09-28T17:52:57.368Z,14.84
2018-09-28T17:55:26.095Z,14.72
2018-09-28T17:57:54.884Z,14.68
2018-09-28T18:00:23.650Z,14.66
2018-09-28T18:02:52.810Z,14.61
2018-09-28T18:05:21.475Z,14.45
2018-09-28T18:07:50.312Z,14.43
2018-09-28T18:10:18.979Z,14.41
2018-09-28T18:12:47.727Z,14.32
2018-09-28T18:15:16.493Z,14.31
2018-09-28T18:17:45.238Z,14.31
2018-09-28T18:20:14.048Z,14.23
2018-09-28T18:22:42.806Z,14.19
2018-09-28T18:25:11.612Z,14.13
2018-09-28T18:27:40.470Z,14.03
2018-09-28T18:30:14.194Z,14.02
2018-09-28T18:32:42.992Z,14.01
2018-09-28T18:35:11.800Z,13.92
2018-09-28T18:37:40.476Z,13.92
2018-09-28T18:40:09.331Z,13.99
2018-09-28T18:42:38.157Z,13.91
2018-09-28T18:45:07.015Z,13.86
2018-09-28T18:47:36.172Z,13.88
2018-09-28T18:50:04.977Z,13.93
2018-09-28T18:52:33.712Z,13.94
2018-09-28T18:55:02.417Z,13.92
2018-09-28T18:57:31.167Z,13.93
2018-09-28T18:59:59.935Z,13.89
2018-09-28T19:02:28.702Z,13.89
2018-09-28T19:04:57.596Z,13.90
2018-09-28T19:07:26.485Z,13.89
2018-09-28T19:09:55.240Z,13.85
2018-09-28T19:12:23.938Z,13.83
2018-09-28T19:14:52.661Z,13.87
2018-09-28T19:17:21.487Z,13.80
2018-09-28T19:19:50.248Z,13.80
2018-09-28T19:22:19.008Z,13.87
2018-09-28T19:24:47.692Z,13.91
2018-09-28T19:27:16.462Z,13.87
2018-09-28T19:29:45.125Z,13.90
2018-09-28T19:32:13.794Z,13.82
2018-09-28T19:34:42.512Z,13.81
2018-09-28T19:37:11.341Z,13.73
2018-09-28T19:39:40.205Z,13.66
2018-09-28T19:42:09.137Z,13.71
2018-09-28T19:44:37.857Z,13.64
2018-09-28T19:47:06.567Z,13.65
2018-09-28T19:49:35.329Z,13.64
2018-09-28T19:52:04.046Z,13.60
2018-09-28T19:54:32.812Z,13.59
2018-09-28T19:57:01.917Z,13.58
2018-09-28T19:59:30.689Z,13.60
2018-09-28T20:01:59.350Z,13.62
2018-09-28T20:04:28.139Z,13.58
2018-09-28T20:06:56.808Z,13.56
2018-09-28T20:09:25.508Z,13.58
2018-09-28T20:11:54.200Z,13.51
2018-09-28T20:14:22.900Z,13.47
2018-09-28T20:16:51.752Z,13.45
2018-09-28T20:19:20.440Z,13.43
2018-09-28T20:21:49.120Z,13.39
2018-09-28T20:24:17.954Z,13.31
2018-09-28T20:26:46.760Z,13.24
2018-09-28T20:29:15.477Z,13.04
2018-09-28T20:31:44.325Z,12.88
2018-09-28T20:34:12.997Z,12.83
2018-09-28T20:36:41.705Z,12.81
2018-09-28T20:39:12.294Z,12.85
2018-09-28T20:41:41.461Z,12.88
2018-09-28T20:44:10.187Z,12.80
2018-09-28T20:46:38.972Z,12.80
2018-09-28T20:49:07.977Z,12.81
2018-09-28T20:51:36.784Z,12.77
2018-09-28T20:54:05.515Z,12.78
2018-09-28T20:56:34.308Z,12.78
2018-09-28T20:59:02.985Z,12.73
2018-09-28T21:01:31.736Z,12.63
2018-09-28T21:04:00.440Z,12.63
2018-09-28T21:06:29.061Z,12.65
2018-09-28T21:08:57.744Z,12.60
2018-09-28T21:11:26.474Z,12.56
2018-09-28T21:13:55.117Z,12.49
2018-09-28T21:16:23.838Z,12.50
2018-09-28T21:18:52.641Z,12.42
2018-09-28T21:21:21.384Z,12.46
2018-09-28T21:23:50.208Z,12.51
2018-09-28T21:26:19.259Z,12.47
2018-09-28T21:28:47.973Z,12.49
2018-09-28T21:31:16.780Z,12.50
2018-09-28T21:33:45.458Z,12.56
2018-09-28T21:36:14.144Z,12.50
2018-09-28T21:38:42.909Z,12.40
2018-09-28T21:41:11.580Z,12.36
2018-09-28T21:43:40.304Z,12.41
2018-09-28T21:46:08.988Z,12.34
2018-09-28T21:48:37.709Z,12.42
2018-09-28T21:51:06.432Z,12.33
2018-09-28T21:53:35.092Z,12.22
2018-09-28T21:56:03.788Z,12.22
2018-09-28T21:58:32.563Z,12.26
2018-09-28T22:01:01.274Z,12.23
2018-09-28T22:03:29.973Z,12.34
2018-09-28T22:05:58.712Z,12.43
2018-09-28T22:08:27.411Z,12.46
2018-09-28T22:10:56.169Z,12.39
2018-09-28T22:13:24.875Z,12.40
2018-09-28T22:15:53.601Z,12.36
2018-09-28T22:18:22.248Z,12.33
2018-09-28T22:20:50.957Z,12.44
2018-09-28T22:23:19.672Z,12.43
2018-09-28T22:25:48.459Z,12.41
2018-09-28T22:28:17.153Z,12.48
2018-09-28T22:30:45.956Z,12.49
2018-09-28T22:33:14.752Z,12.52
2018-09-28T22:35:43.444Z,12.56
2018-09-28T22:38:12.173Z,12.53
2018-09-28T22:40:40.916Z,12.41
2018-09-28T22:43:09.661Z,12.35
2018-09-28T22:45:38.339Z,12.43
2018-09-28T22:48:07.044Z,12.42
2018-09-28T22:50:35.760Z,12.37
2018-09-28T22:53:04.525Z,12.41
2018-09-28T22:55:33.471Z,12.38
2018-09-28T22:58:02.157Z,12.37
2018-09-28T23:00:30.909Z,12.38
2018-09-28T23:02:59.609Z,12.38
2018-09-28T23:05:28.296Z,12.40
2018-09-28T23:07:56.972Z,12.46
2018-09-28T23:10:25.825Z,12.49
2018-09-28T23:12:54.576Z,12.41
2018-09-28T23:15:23.255Z,12.45
2018-09-28T23:17:52.043Z,12.43
2018-09-28T23:20:20.728Z,12.29
2018-09-28T23:22:49.589Z,12.33
2018-09-28T23:25:18.434Z,12.26
2018-09-28T23:27:47.202Z,12.09
2018-09-28T23:30:15.991Z,12.11
2018-09-28T23:32:44.701Z,12.02
2018-09-28T23:35:13.484Z,11.79
2018-09-28T23:37:42.153Z,11.75
2018-09-28T23:40:10.789Z,11.85
2018-09-28T23:42:39.507Z,11.84
2018-09-28T23:45:08.241Z,11.92
2018-09-28T23:47:36.917Z,11.93
2018-09-28T23:50:05.684Z,11.95
2018-09-28T23:52:34.361Z,11.87
2018-09-28T23:55:03.129Z,11.74
2018-09-28T23:57:31.809Z,11.52
